Time;durP1;ratioP1;P1;durP2;ratioP2;P2;SDS_P1;SDS_P2;PMS_P1;PMS_P2;Temp;Humidity;BMP_temperature;BMP_pressure;BME280_temperature;BME280_humidity;BME280_pressure;Samples;Min_cycle;Max_cycle;Signal;HPM_P1;HPM_P2
2023/09/19 00:02:19;;;;;;;33.40;19.20;;;16.60;99.90;;;;;;1932959;73;25197;-90
2023/09/19 00:05:23;;;;;;;31.60;18.57;;;16.60;99.90;;;;;;1924638;73;25244;-90
2023/09/19 00:23:38;;;;;;;34.50;21.20;;;16.60;99.90;;;;;;1841299;74;27441;-92
2023/09/19 00:39:32;;;;;;;33.10;21.43;;;16.60;99.90;;;;;;2007896;69;27048;-91
2023/09/19 00:43:03;;;;;;;33.27;19.50;;;16.60;99.90;;;;;;1974061;70;25263;-92
2023/09/19 01:00:08;;;;;;;44.27;22.43;;;16.50;99.90;;;;;;1971997;72;27440;-91
2023/09/19 01:25:47;;;;;;;43.00;23.43;;;16.30;99.90;;;;;;1950663;72;27076;-91
2023/09/19 01:28:54;;;;;;;42.53;23.10;;;16.40;99.90;;;;;;1936573;72;25877;-91
2023/09/19 01:31:43;;;;;;;43.57;22.53;;;16.30;99.90;;;;;;1923973;72;25835;-91
2023/09/19 01:34:50;;;;;;;45.03;23.30;;;16.30;99.90;;;;;;1949660;72;25212;-92
2023/09/19 01:37:43;;;;;;;44.27;24.20;;;16.30;99.90;;;;;;1916503;72;25300;-92
2023/09/19 03:01:41;;;;;;;31.73;19.53;;;16.70;99.90;;;;;;1927207;72;25751;-91
2023/09/19 03:04:33;;;;;;;40.80;22.57;;;16.60;99.90;;;;;;1939877;73;25201;-91
2023/09/19 03:07:46;;;;;;;40.37;23.40;;;16.50;99.90;;;;;;1927049;72;25635;-91
2023/09/19 03:11:22;;;;;;;37.93;23.27;;;16.60;99.90;;;;;;1928888;73;25225;-92
2023/09/19 03:14:36;;;;;;;41.13;21.93;;;16.50;99.90;;;;;;1931565;73;25682;-92
2023/09/19 03:18:20;;;;;;;43.63;23.10;;;16.50;99.90;;;;;;1931260;73;25219;-93
2023/09/19 03:37:57;;;;;;;45.10;25.83;;;16.50;99.90;;;;;;1792161;78;32220;-91
2023/09/19 03:41:17;;;;;;;40.63;23.87;;;16.60;99.90;;;;;;1787382;79;25225;-91
2023/09/19 03:47:38;;;;;;;44.40;26.30;;;16.50;99.90;;;;;;1940609;72;27510;-91
2023/09/19 03:51:08;;;;;;;42.80;24.90;;;16.50;99.90;;;;;;1943410;72;25264;-92
2023/09/19 03:54:36;;;;;;;42.17;23.70;;;16.50;99.90;;;;;;1894522;73;25247;-92
2023/09/19 03:57:50;;;;;;;47.93;25.43;;;16.50;99.90;;;;;;1922720;73;25279;-92
2023/09/19 04:01:00;;;;;;;44.63;24.60;;;16.60;99.90;;;;;;1940458;73;26580;-91
2023/09/19 04:04:32;;;;;;;47.47;26.07;;;16.60;99.90;;;;;;1932607;73;25662;-91
2023/09/19 04:08:17;;;;;;;38.47;23.77;;;16.60;99.90;;;;;;1913966;73;25687;-92
2023/09/19 04:11:33;;;;;;;48.07;25.33;;;16.50;99.90;;;;;;1925607;73;25709;-92
2023/09/19 04:14:59;;;;;;;41.87;25.67;;;16.60;99.90;;;;;;1926306;73;25260;-92
2023/09/19 04:20:54;;;;;;;46.67;25.00;;;16.60;99.90;;;;;;1941408;72;27056;-91
2023/09/19 04:23:45;;;;;;;50.77;26.17;;;16.50;99.90;;;;;;1933580;73;25169;-92
2023/09/19 04:46:01;;;;;;;31.20;17.43;;;16.70;99.90;;;;;;1951679;72;27717;-90
2023/09/19 04:48:51;;;;;;;37.60;21.00;;;16.70;99.90;;;;;;1920495;73;25194;-90
2023/09/19 04:51:41;;;;;;;34.97;21.97;;;16.70;99.90;;;;;;1917127;73;25663;-90
2023/09/19 04:54:32;;;;;;;36.50;20.17;;;16.60;99.90;;;;;;1917230;73;25823;-90
2023/09/19 05:13:53;;;;;;;31.60;19.50;;;16.60;99.90;;;;;;1905657;74;27119;-89
2023/09/19 05:30:01;;;;;;;25.60;16.87;;;16.70;99.90;;;;;;1859460;75;27160;-90
2023/09/19 06:00:47;;;;;;;21.43;13.33;;;16.50;99.90;;;;;;1962996;72;26698;-91
2023/09/19 06:06:27;;;;;;;22.03;11.93;;;16.70;99.90;;;;;;1942906;72;28216;-90
2023/09/19 06:09:23;;;;;;;22.10;12.70;;;16.70;99.90;;;;;;1923901;73;25267;-90
2023/09/19 06:12:20;;;;;;;27.50;15.30;;;16.70;99.90;;;;;;1945375;73;25704;-91
2023/09/19 06:44:06;;;;;;;21.07;10.50;;;16.90;99.90;;;;;;1906048;72;27064;-90
2023/09/19 07:00:58;;;;;;;14.13;9.70;;;16.80;99.90;;;;;;1936976;73;26416;-92
2023/09/19 07:17:36;;;;;;;8.80;5.57;;;16.50;99.90;;;;;;1909039;74;27739;-89
2023/09/19 07:35:23;;;;;;;7.37;3.47;;;16.60;99.90;;;;;;1872571;75;26864;-89
2023/09/19 07:38:13;;;;;;;11.83;3.90;;;16.70;99.90;;;;;;1875855;75;25264;-89
2023/09/19 08:07:48;;;;;;;3.53;1.60;;;16.70;99.90;;;;;;1911801;74;26361;-90
2023/09/19 08:10:39;;;;;;;4.97;1.20;;;16.40;99.90;;;;;;1794621;77;25275;-89
2023/09/19 08:13:27;;;;;;;6.17;1.37;;;16.40;99.90;;;;;;1791666;78;25260;-89
2023/09/19 08:33:28;;;;;;;4.80;1.40;;;16.80;99.90;;;;;;1943896;72;27542;-90
2023/09/19 08:36:17;;;;;;;1.67;1.00;;;17.30;99.90;;;;;;1922516;74;25737;-91
2023/09/19 08:42:00;;;;;;;4.47;1.10;;;16.80;99.90;;;;;;1951031;72;26978;-89
2023/09/19 08:44:49;;;;;;;3.37;1.30;;;16.50;99.90;;;;;;1912412;75;25251;-90
2023/09/19 08:50:34;;;;;;;4.07;1.07;;;17.00;99.90;;;;;;1944264;72;26977;-90
2023/09/19 08:53:36;;;;;;;3.53;0.73;;;17.30;99.90;;;;;;1925150;73;25230;-90
2023/09/19 08:56:26;;;;;;;2.27;0.80;;;17.30;99.90;;;;;;1917593;73;25581;-90
2023/09/19 08:59:15;;;;;;;2.57;0.70;;;17.10;99.90;;;;;;1932298;73;26635;-90
2023/09/19 09:02:04;;;;;;;2.17;1.10;;;17.50;99.90;;;;;;1906613;75;25310;-90
2023/09/19 09:18:32;;;;;;;0.70;0.70;;;17.60;99.90;;;;;;1887042;73;27041;-89
2023/09/19 09:24:08;;;;;;;4.07;0.90;;;17.30;99.90;;;;;;1929357;72;27477;-89
2023/09/19 09:26:58;;;;;;;2.20;0.90;;;17.20;99.90;;;;;;1870752;76;25271;-89
2023/09/19 09:29:49;;;;;;;4.07;0.87;;;17.10;99.90;;;;;;1822525;76;25758;-89
2023/09/19 09:32:39;;;;;;;3.80;1.10;;;16.90;99.90;;;;;;1866251;76;25304;-89
2023/09/19 09:35:27;;;;;;;1.67;1.03;;;17.00;99.90;;;;;;1907653;73;25702;-90
2023/09/19 09:38:18;;;;;;;3.93;1.20;;;17.20;99.90;;;;;;1876089;76;25804;-89
2023/09/19 09:41:07;;;;;;;3.13;1.03;;;17.20;99.90;;;;;;1836225;76;25825;-89
2023/09/19 09:43:56;;;;;;;2.23;1.00;;;17.20;99.90;;;;;;1870358;75;25201;-89
2023/09/19 09:50:16;;;;;;;2.17;0.90;;;17.20;99.90;;;;;;1894434;75;25292;-89
2023/09/19 09:53:06;;;;;;;3.80;1.03;;;17.00;99.90;;;;;;1902255;75;25218;-90
2023/09/19 09:56:05;;;;;;;3.67;1.17;;;17.10;99.90;;;;;;1891642;75;25746;-90
2023/09/19 09:58:54;;;;;;;2.67;1.30;;;16.90;99.90;;;;;;1910347;74;25703;-90
2023/09/19 10:02:04;;;;;;;3.13;1.50;;;16.90;99.90;;;;;;1875473;75;25243;-90
2023/09/19 10:21:22;;;;;;;7.60;1.30;;;17.00;99.90;;;;;;1946967;72;27061;-90
2023/09/19 10:24:12;;;;;;;9.13;1.73;;;16.60;99.90;;;;;;1859555;76;25279;-90
2023/09/19 10:27:03;;;;;;;7.60;1.67;;;16.30;99.90;;;;;;1808187;78;25207;-91
2023/09/19 10:29:53;;;;;;;6.93;1.73;;;16.30;99.90;;;;;;1846864;77;25292;-90
2023/09/19 10:32:46;;;;;;;11.57;1.83;;;16.30;99.90;;;;;;1865088;76;25205;-91
2023/09/19 10:35:34;;;;;;;8.13;1.90;;;16.40;99.90;;;;;;1833220;77;25283;-90
2023/09/19 10:38:28;;;;;;;3.33;1.40;;;16.20;99.90;;;;;;1901025;74;25704;-91
2023/09/19 10:41:20;;;;;;;11.37;2.20;;;16.20;99.90;;;;;;1856150;76;25327;-91
2023/09/19 10:44:09;;;;;;;6.67;1.67;;;16.20;99.90;;;;;;1814875;78;25710;-91
2023/09/19 10:52:34;;;;;;;7.07;1.83;;;15.80;99.90;;;;;;1953139;72;26620;-90
2023/09/19 10:55:24;;;;;;;6.50;1.63;;;15.40;99.90;;;;;;1925284;73;25228;-90
2023/09/19 11:02:33;;;;;;;4.80;1.63;;;14.50;99.90;;;;;;1977049;71;26360;-89
2023/09/19 11:05:22;;;;;;;7.27;1.70;;;14.20;99.90;;;;;;2006474;70;25714;-90
2023/09/19 11:08:12;;;;;;;5.90;1.50;;;14.20;99.90;;;;;;2021149;70;25282;-90
2023/09/19 11:11:03;;;;;;;2.17;1.40;;;14.30;99.90;;;;;;2018656;70;25676;-90
2023/09/19 11:14:11;;;;;;;3.57;1.50;;;14.50;99.90;;;;;;2023997;70;25281;-91
2023/09/19 11:17:46;;;;;;;4.30;1.47;;;14.50;99.90;;;;;;2029647;70;25752;-90
2023/09/19 11:20:51;;;;;;;4.00;1.00;;;14.40;99.90;;;;;;2009453;70;25206;-90
2023/09/19 11:23:36;;;;;;;6.13;1.77;;;14.20;99.90;;;;;;2022649;70;25209;-90
2023/09/19 11:26:43;;;;;;;4.50;1.20;;;14.20;99.90;;;;;;2022224;70;25669;-90
2023/09/19 11:32:20;;;;;;;5.57;1.70;;;15.00;99.90;;;;;;1921307;74;27070;-90
2023/09/19 11:35:16;;;;;;;4.83;1.43;;;15.20;99.90;;;;;;1850404;75;25246;-90
2023/09/19 11:38:10;;;;;;;5.53;1.60;;;15.10;99.90;;;;;;1862627;75;25406;-90
2023/09/19 11:43:39;;;;;;;4.57;1.70;;;15.70;99.90;;;;;;1976252;71;26956;-90
2023/09/19 11:49:15;;;;;;;3.47;1.77;;;15.60;99.90;;;;;;1913401;74;27032;-90
2023/09/19 11:52:06;;;;;;;5.03;1.70;;;15.70;99.90;;;;;;1851462;76;25235;-90
2023/09/19 11:54:58;;;;;;;5.20;1.17;;;15.50;99.90;;;;;;1872280;76;25243;-90
2023/09/19 11:57:47;;;;;;;8.40;1.60;;;15.50;99.90;;;;;;1870519;76;26627;-90
2023/09/19 12:00:36;;;;;;;3.17;1.20;;;15.50;99.90;;;;;;1857328;75;25707;-90
2023/09/19 12:03:28;;;;;;;9.27;1.70;;;15.50;99.90;;;;;;1865588;76;25228;-90
2023/09/19 12:06:18;;;;;;;5.43;1.90;;;15.50;99.90;;;;;;1857235;76;25219;-90
2023/09/19 12:09:11;;;;;;;3.57;1.37;;;15.60;99.90;;;;;;1853281;76;25774;-90
2023/09/19 12:11:57;;;;;;;7.40;1.47;;;15.50;99.90;;;;;;1871180;76;25241;-90
2023/09/19 12:14:51;;;;;;;3.60;1.40;;;15.50;99.90;;;;;;1859058;76;25673;-90
2023/09/19 12:18:00;;;;;;;4.60;1.70;;;15.40;99.90;;;;;;1853389;76;25228;-90
2023/09/19 12:20:50;;;;;;;5.90;1.37;;;15.30;99.90;;;;;;1860708;76;25320;-90
2023/09/19 12:23:41;;;;;;;5.07;1.50;;;15.30;99.90;;;;;;1860623;76;25744;-90
2023/09/19 12:26:33;;;;;;;5.37;1.37;;;15.30;99.90;;;;;;1864763;76;25225;-90
2023/09/19 12:29:21;;;;;;;5.77;1.40;;;15.10;99.90;;;;;;1862830;76;25250;-90
2023/09/19 12:34:59;;;;;;;7.63;1.70;;;15.00;99.90;;;;;;1943806;72;26496;-90
2023/09/19 12:37:52;;;;;;;2.07;1.20;;;15.00;99.90;;;;;;1937569;73;25267;-89
2023/09/19 12:43:23;;;;;;;4.73;1.30;;;15.40;99.90;;;;;;1912964;72;27179;-90
2023/09/19 12:49:18;;;;;;;8.00;1.20;;;15.00;99.90;;;;;;1952336;72;26928;-90
2023/09/19 12:52:07;;;;;;;2.23;1.17;;;14.90;99.90;;;;;;1923873;73;25205;-89
2023/09/19 12:54:57;;;;;;;7.83;1.10;;;14.90;99.90;;;;;;1916435;75;25297;-89
2023/09/19 13:11:17;;;;;;;9.53;1.57;;;15.00;99.90;;;;;;1998512;71;26917;-90
2023/09/19 13:14:17;;;;;;;2.17;1.10;;;15.20;99.90;;;;;;1956789;72;25230;-90
2023/09/19 13:17:15;;;;;;;4.23;1.07;;;15.00;99.90;;;;;;1953342;72;25165;-90
2023/09/19 13:19:58;;;;;;;7.97;1.87;;;15.00;99.90;;;;;;1960952;72;25236;-90
2023/09/19 13:22:53;;;;;;;8.80;2.10;;;15.20;99.90;;;;;;1957149;72;25270;-89
2023/09/19 13:28:34;;;;;;;5.30;1.00;;;15.30;99.90;;;;;;1963093;72;26993;-90
2023/09/19 13:34:08;;;;;;;8.90;1.47;;;15.10;99.90;;;;;;1940857;72;27499;-90
2023/09/19 13:36:58;;;;;;;2.57;1.07;;;15.30;99.90;;;;;;1843258;76;25230;-90
2023/09/19 13:39:48;;;;;;;5.90;1.47;;;15.40;99.90;;;;;;1805850;78;25207;-90
2023/09/19 13:42:39;;;;;;;5.97;1.33;;;15.40;99.90;;;;;;1865531;77;25269;-89
2023/09/19 13:45:30;;;;;;;9.10;1.43;;;15.30;99.90;;;;;;1852635;77;25297;-89
2023/09/19 13:48:22;;;;;;;4.27;1.07;;;15.20;99.90;;;;;;1894647;75;25775;-89
2023/09/19 13:51:10;;;;;;;4.97;1.07;;;15.10;99.90;;;;;;1890749;75;25202;-91
2023/09/19 13:54:00;;;;;;;5.63;1.13;;;15.10;99.90;;;;;;1887996;75;25250;-91
2023/09/19 13:56:48;;;;;;;6.50;1.33;;;15.00;99.90;;;;;;1868990;75;25182;-89
2023/09/19 13:59:36;;;;;;;5.10;1.13;;;15.10;99.90;;;;;;1868208;74;25193;-89
2023/09/19 14:02:25;;;;;;;8.77;1.27;;;15.00;99.90;;;;;;1888644;75;25219;-89
2023/09/19 14:08:28;;;;;;;7.73;1.60;;;15.10;99.90;;;;;;1985275;71;26342;-90
2023/09/19 14:24:21;;;;;;;7.87;1.20;;;15.10;99.90;;;;;;1886555;75;27126;-90
2023/09/19 14:29:51;;;;;;;8.23;1.30;;;15.00;99.90;;;;;;1900152;74;27048;-89
2023/09/19 14:32:41;;;;;;;7.43;1.50;;;15.00;99.90;;;;;;1898080;75;25729;-90
2023/09/19 14:35:30;;;;;;;8.47;1.37;;;14.70;99.90;;;;;;1891721;73;25219;-90
2023/09/19 14:38:18;;;;;;;8.03;1.60;;;14.70;99.90;;;;;;1899788;75;25558;-90
2023/09/19 14:41:08;;;;;;;7.70;1.37;;;14.70;99.90;;;;;;1880258;75;25735;-90
2023/09/19 14:46:39;;;;;;;4.53;1.30;;;14.80;99.90;;;;;;1962782;71;27511;-90
2023/09/19 14:49:28;;;;;;;8.13;1.70;;;14.90;99.90;;;;;;1927211;72;25814;-90
2023/09/19 14:52:16;;;;;;;8.97;1.80;;;15.00;99.90;;;;;;1938736;72;25249;-90
2023/09/19 14:55:06;;;;;;;9.30;1.73;;;15.10;99.90;;;;;;1946311;73;25185;-89
2023/09/19 14:57:56;;;;;;;16.77;1.97;;;15.00;99.90;;;;;;1914075;73;25318;-89
2023/09/19 15:00:45;;;;;;;5.67;1.53;;;15.00;99.90;;;;;;1879315;75;25341;-90
2023/09/19 15:03:35;;;;;;;11.63;1.40;;;14.90;99.90;;;;;;1935301;73;25255;-89
2023/09/19 15:06:26;;;;;;;9.03;1.50;;;14.70;99.90;;;;;;1927622;72;25944;-90
2023/09/19 15:09:18;;;;;;;3.50;1.07;;;14.50;99.90;;;;;;1953948;72;25717;-90
2023/09/19 15:12:07;;;;;;;13.17;1.70;;;14.40;99.90;;;;;;1933347;72;25748;-91
2023/09/19 15:14:56;;;;;;;11.17;1.87;;;14.50;99.90;;;;;;1942884;72;25282;-90
2023/09/19 15:17:45;;;;;;;6.90;1.33;;;14.60;99.90;;;;;;1937793;72;25234;-91
2023/09/19 15:20:34;;;;;;;5.93;1.50;;;14.70;99.90;;;;;;1942039;72;25240;-91
2023/09/19 15:23:22;;;;;;;12.93;1.70;;;14.80;99.90;;;;;;1931539;72;25580;-91
2023/09/19 15:26:13;;;;;;;4.40;0.90;;;14.80;99.90;;;;;;1923894;72;25234;-91
2023/09/19 15:31:46;;;;;;;7.13;1.60;;;14.60;99.90;;;;;;1942742;72;26972;-90
2023/09/19 15:34:35;;;;;;;5.63;1.43;;;14.70;99.90;;;;;;1840747;78;25268;-90
2023/09/19 15:37:23;;;;;;;12.17;1.47;;;14.70;99.90;;;;;;1823461;77;25762;-90
2023/09/19 15:40:13;;;;;;;4.67;1.60;;;14.60;99.90;;;;;;1827991;77;25262;-90
2023/09/19 15:43:02;;;;;;;8.20;1.83;;;14.50;99.90;;;;;;1844764;77;25288;-90
2023/09/19 15:45:51;;;;;;;11.73;1.60;;;14.50;99.90;;;;;;1842538;77;25696;-90
2023/09/19 15:48:39;;;;;;;4.47;1.43;;;14.50;99.90;;;;;;1833595;77;25191;-91
2023/09/19 15:51:30;;;;;;;7.73;1.50;;;14.50;99.90;;;;;;1825967;77;25708;-91
2023/09/19 15:54:19;;;;;;;5.80;1.30;;;14.50;99.90;;;;;;1839983;77;25729;-91
2023/09/19 15:59:54;;;;;;;10.27;1.60;;;14.30;99.90;;;;;;1959356;72;27683;-90
2023/09/19 16:02:42;;;;;;;9.17;1.70;;;14.20;99.90;;;;;;1935692;73;25225;-90
2023/09/19 16:05:36;;;;;;;12.70;1.60;;;14.00;99.90;;;;;;1931032;73;25271;-90
2023/09/19 16:11:20;;;;;;;3.90;1.40;;;13.90;99.90;;;;;;1995984;71;26990;-90
2023/09/19 16:31:51;;;;;;;3.20;0.70;;;13.70;99.90;;;;;;1955243;71;27126;-89
2023/09/19 16:34:41;;;;;;;9.87;1.57;;;13.70;99.90;;;;;;1986734;72;25236;-90
2023/09/19 16:37:30;;;;;;;6.93;1.40;;;13.70;99.90;;;;;;1988767;72;25669;-90
2023/09/19 16:40:19;;;;;;;7.13;1.27;;;13.60;99.90;;;;;;1978460;72;25365;-90
2023/09/19 16:43:07;;;;;;;5.93;1.37;;;13.60;99.90;;;;;;2011413;70;25326;-91
2023/09/19 16:45:57;;;;;;;8.80;1.50;;;13.70;99.90;;;;;;1994260;70;25868;-90
2023/09/19 16:48:46;;;;;;;6.63;1.70;;;13.60;99.90;;;;;;2010887;70;25156;-90
2023/09/19 16:51:35;;;;;;;8.47;1.60;;;13.60;99.90;;;;;;1999056;70;25166;-90
2023/09/19 16:54:25;;;;;;;11.57;1.60;;;13.60;99.90;;;;;;2007006;70;25236;-90
2023/09/19 17:00:10;;;;;;;9.10;1.57;;;13.60;99.90;;;;;;1947228;72;28356;-90
2023/09/19 17:03:00;;;;;;;9.27;2.00;;;13.70;99.90;;;;;;1918967;73;25311;-90
2023/09/19 17:05:49;;;;;;;3.50;1.10;;;13.60;99.90;;;;;;1942878;73;25317;-91
2023/09/19 17:08:38;;;;;;;8.57;1.53;;;13.60;99.90;;;;;;1924606;73;25270;-90
2023/09/19 17:11:27;;;;;;;11.33;1.40;;;13.60;99.90;;;;;;1929303;73;25926;-91
2023/09/19 17:14:16;;;;;;;8.83;1.70;;;13.70;99.90;;;;;;1935856;73;25306;-90
2023/09/19 17:17:05;;;;;;;6.63;1.37;;;13.60;99.90;;;;;;1915891;73;25202;-90
2023/09/19 17:19:54;;;;;;;3.27;1.10;;;13.70;99.90;;;;;;1925968;73;25755;-91
2023/09/19 17:22:43;;;;;;;6.37;1.50;;;13.60;99.90;;;;;;1926703;73;25749;-90
2023/09/19 17:25:33;;;;;;;9.20;1.60;;;13.70;99.90;;;;;;1937368;73;25203;-90
2023/09/19 17:28:21;;;;;;;8.07;1.53;;;13.70;99.90;;;;;;1916652;73;25586;-90
2023/09/19 17:31:12;;;;;;;6.33;1.30;;;13.70;99.90;;;;;;1927229;73;25177;-90
2023/09/19 17:34:00;;;;;;;10.60;1.70;;;13.70;99.90;;;;;;1916278;72;25171;-90
2023/09/19 17:36:49;;;;;;;10.33;1.83;;;13.70;99.90;;;;;;1921384;73;25253;-90
2023/09/19 17:39:38;;;;;;;11.67;1.80;;;13.70;99.90;;;;;;1937624;73;25873;-91
2023/09/19 17:42:28;;;;;;;4.60;1.43;;;13.70;99.90;;;;;;1926956;73;25313;-91
2023/09/19 17:45:17;;;;;;;5.00;1.50;;;13.70;99.90;;;;;;1897709;73;25212;-91
2023/09/19 17:48:08;;;;;;;4.50;1.33;;;13.70;99.90;;;;;;1933612;73;25175;-90
2023/09/19 17:51:02;;;;;;;13.47;1.50;;;13.60;99.90;;;;;;1915615;73;25226;-90
2023/09/19 17:56:37;;;;;;;4.80;1.20;;;13.40;99.90;;;;;;1940134;72;28316;-90
2023/09/19 17:59:25;;;;;;;3.53;1.20;;;13.40;99.90;;;;;;1861665;75;25270;-91
2023/09/19 18:15:51;;;;;;;2.47;1.30;;;13.20;99.90;;;;;;1905717;74;26896;-89
2023/09/19 18:21:33;;;;;;;4.97;1.10;;;13.00;99.90;;;;;;1954203;72;27433;-90
2023/09/19 18:24:21;;;;;;;5.40;1.40;;;13.00;99.90;;;;;;1930597;73;25232;-90
2023/09/19 18:27:09;;;;;;;4.73;0.93;;;13.00;99.90;;;;;;1931921;73;25299;-90
2023/09/19 18:29:58;;;;;;;3.43;1.30;;;12.90;99.90;;;;;;1883810;75;25221;-90
2023/09/19 18:32:48;;;;;;;5.10;1.13;;;12.90;99.90;;;;;;1891490;73;25578;-89
2023/09/19 18:35:37;;;;;;;3.27;1.20;;;12.80;99.90;;;;;;1886705;74;25328;-90
2023/09/19 18:38:26;;;;;;;2.23;1.20;;;12.80;99.90;;;;;;1855783;76;25262;-89
2023/09/19 18:57:06;;;;;;;3.70;1.30;;;12.60;99.90;;;;;;1860482;75;26454;-91
2023/09/19 19:19:10;;;;;;;3.63;1.40;;;12.10;99.90;;;;;;1921167;74;28336;-92
2023/09/19 19:43:50;;;;;;;2.03;0.90;;;12.00;99.90;;;;;;1907950;74;30521;-91
2023/09/19 20:09:55;;;;;;;5.10;1.60;;;12.00;99.90;;;;;;1944114;73;26088;-92
2023/09/19 20:53:13;;;;;;;1.60;0.70;;;11.70;99.90;;;;;;1932212;73;25559;-91
2023/09/19 21:04:20;;;;;;;2.40;0.97;;;11.80;99.90;;;;;;1919524;73;25220;-91
2023/09/19 21:18:39;;;;;;;1.43;1.00;;;11.90;99.90;;;;;;1932328;73;25246;-91
2023/09/19 22:11:39;;;;;;;0.70;0.70;;;12.00;99.90;;;;;;1929298;72;28190;-91
2023/09/19 23:05:52;;;;;;;1.33;0.83;;;12.20;99.90;;;;;;1942247;72;27573;-90
2023/09/19 23:09:15;;;;;;;1.13;0.70;;;12.20;99.90;;;;;;1917181;75;25747;-90
2023/09/19 23:20:25;;;;;;;1.60;0.90;;;12.20;99.90;;;;;;1981632;71;26894;-90
2023/09/19 23:23:09;;;;;;;2.53;1.20;;;12.30;99.90;;;;;;1991571;71;25224;-90
